createdAt,value
2023-01-29T00:02:13.004Z,2.93
2023-01-29T00:04:40.155Z,2.89
2023-01-29T00:07:07.175Z,2.94
2023-01-29T00:09:34.604Z,2.98
2023-01-29T00:12:01.741Z,2.98
2023-01-29T00:14:28.981Z,3.11
2023-01-29T00:16:56.033Z,3.17
2023-01-29T00:19:23.543Z,3.23
2023-01-29T00:21:50.541Z,3.36
2023-01-29T00:24:17.650Z,3.32
2023-01-29T00:26:45.430Z,3.08
2023-01-29T00:29:12.569Z,3.14
2023-01-29T00:31:39.842Z,3.17
2023-01-29T00:34:07.397Z,3.25
2023-01-29T00:36:34.313Z,3.20
2023-01-29T00:39:10.608Z,3.18
2023-01-29T00:41:57.221Z,3.29
2023-01-29T00:44:42.976Z,3.30
2023-01-29T00:47:29.078Z,3.34
2023-01-29T00:49:56.761Z,3.38
2023-01-29T00:52:24.206Z,3.54
2023-01-29T00:54:54.153Z,3.48
2023-01-29T00:57:21.741Z,3.35
2023-01-29T00:59:48.808Z,3.38
2023-01-29T01:02:34.707Z,3.36
2023-01-29T01:05:06.144Z,3.18
2023-01-29T01:07:33.899Z,2.92
2023-01-29T01:10:19.390Z,3.01
2023-01-29T01:12:46.567Z,3.07
2023-01-29T01:15:14.005Z,3.15
2023-01-29T01:17:41.143Z,3.10
2023-01-29T01:20:09.603Z,3.07
2023-01-29T01:22:37.229Z,3.12
2023-01-29T01:25:05.201Z,3.16
2023-01-29T01:27:32.446Z,3.18
2023-01-29T01:29:59.502Z,2.99
2023-01-29T01:32:26.550Z,3.09
2023-01-29T01:34:53.997Z,3.12
2023-01-29T01:37:21.163Z,2.95
2023-01-29T01:39:49.114Z,3.09
2023-01-29T01:42:16.406Z,3.30
2023-01-29T01:45:04.748Z,3.28
2023-01-29T01:47:35.669Z,3.23
2023-01-29T01:50:31.703Z,3.09
2023-01-29T01:53:07.524Z,2.89
2023-01-29T01:55:37.091Z,3.02
2023-01-29T01:58:10.875Z,2.98
2023-01-29T02:00:39.806Z,3.19
2023-01-29T02:03:27.295Z,3.09
2023-01-29T02:06:16.208Z,3.26
2023-01-29T02:09:19.403Z,3.25
2023-01-29T02:11:46.517Z,3.11
2023-01-29T02:14:14.405Z,3.24
2023-01-29T02:16:41.325Z,3.26
2023-01-29T02:19:20.539Z,3.25
2023-01-29T02:22:02.639Z,3.19
2023-01-29T02:24:52.293Z,3.15
2023-01-29T02:27:30.708Z,3.04
2023-01-29T02:30:15.145Z,3.11
2023-01-29T02:33:02.327Z,3.27
2023-01-29T02:35:37.464Z,3.30
2023-01-29T02:38:35.296Z,3.40
2023-01-29T02:41:09.409Z,3.41
2023-01-29T02:43:54.833Z,3.45
2023-01-29T02:46:37.194Z,3.52
2023-01-29T02:49:35.249Z,3.46
2023-01-29T02:52:33.967Z,3.52
2023-01-29T02:55:23.704Z,3.46
2023-01-29T02:57:56.309Z,3.26
2023-01-29T03:00:45.948Z,3.43
2023-01-29T03:03:13.144Z,3.51
2023-01-29T03:06:06.544Z,3.49
2023-01-29T03:08:45.730Z,3.47
2023-01-29T03:11:16.414Z,3.53
2023-01-29T03:13:52.891Z,3.37
2023-01-29T03:16:31.231Z,3.32
2023-01-29T03:19:13.679Z,3.31
2023-01-29T03:21:51.255Z,3.13
2023-01-29T03:24:43.235Z,3.15
2023-01-29T03:27:32.440Z,3.21
2023-01-29T03:30:20.132Z,3.11
2023-01-29T03:33:21.391Z,3.17
2023-01-29T03:35:56.801Z,3.23
2023-01-29T03:38:31.845Z,3.20
2023-01-29T03:41:14.463Z,3.21
2023-01-29T03:44:20.948Z,3.33
2023-01-29T03:46:59.364Z,3.25
2023-01-29T03:49:53.681Z,3.32
2023-01-29T03:52:31.647Z,3.19
2023-01-29T03:55:10.896Z,3.15
2023-01-29T03:57:57.986Z,3.11
2023-01-29T04:00:34.467Z,3.04
2023-01-29T04:03:29.892Z,2.95
2023-01-29T04:06:11.821Z,2.97
2023-01-29T04:09:04.431Z,2.89
2023-01-29T04:11:37.352Z,3.01
2023-01-29T04:14:05.070Z,2.80
2023-01-29T04:16:37.524Z,2.94
2023-01-29T04:19:21.149Z,2.94
2023-01-29T04:21:53.322Z,2.88
2023-01-29T04:24:20.780Z,2.82
2023-01-29T04:27:06.697Z,2.83
2023-01-29T04:29:38.657Z,2.73
2023-01-29T04:32:31.711Z,2.77
2023-01-29T04:35:06.617Z,2.67
2023-01-29T04:37:35.887Z,2.83
2023-01-29T04:40:15.137Z,2.73
2023-01-29T04:42:55.857Z,2.74
2023-01-29T04:45:50.669Z,2.71
2023-01-29T04:48:30.566Z,2.68
2023-01-29T04:51:25.440Z,2.79
2023-01-29T04:54:17.515Z,2.79
2023-01-29T04:56:47.457Z,2.71
2023-01-29T04:59:21.346Z,2.85
2023-01-29T05:01:49.355Z,2.88
2023-01-29T05:04:21.021Z,2.43
2023-01-29T05:06:48.926Z,2.67
2023-01-29T05:09:17.955Z,2.73
2023-01-29T05:11:47.669Z,2.67
2023-01-29T05:14:18.725Z,2.66
2023-01-29T05:16:50.811Z,2.65
2023-01-29T05:19:18.270Z,2.39
2023-01-29T05:21:48.578Z,2.40
2023-01-29T05:24:26.116Z,2.51
2023-01-29T05:27:13.242Z,2.38
2023-01-29T05:29:46.722Z,2.48
2023-01-29T05:32:15.418Z,2.45
2023-01-29T05:34:43.101Z,2.35
2023-01-29T05:37:10.626Z,2.52
2023-01-29T05:39:37.682Z,2.38
2023-01-29T05:42:04.819Z,2.44
2023-01-29T05:44:31.997Z,2.53
2023-01-29T05:46:59.124Z,2.49
2023-01-29T05:49:26.326Z,2.65
2023-01-29T05:51:53.253Z,2.60
2023-01-29T05:54:20.267Z,2.58
2023-01-29T05:56:47.498Z,2.58
2023-01-29T05:59:15.756Z,2.59
2023-01-29T06:01:42.674Z,2.58
2023-01-29T06:04:09.722Z,2.70
2023-01-29T06:06:36.915Z,2.65
2023-01-29T06:09:04.052Z,2.62
2023-01-29T06:11:30.998Z,2.49
2023-01-29T06:13:58.206Z,2.32
2023-01-29T06:16:25.181Z,2.02
2023-01-29T06:18:52.262Z,2.09
2023-01-29T06:21:20.179Z,2.20
2023-01-29T06:23:47.511Z,2.41
2023-01-29T06:26:15.972Z,2.58
2023-01-29T06:28:45.376Z,2.64
2023-01-29T06:31:30.443Z,2.57
2023-01-29T06:33:59.470Z,2.47
2023-01-29T06:36:26.620Z,2.65
2023-01-29T06:38:54.277Z,2.70
2023-01-29T06:41:25.840Z,2.88
2023-01-29T06:43:53.644Z,2.83
2023-01-29T06:46:21.234Z,2.79
2023-01-29T06:48:49.797Z,2.92
2023-01-29T06:51:17.454Z,2.82
2023-01-29T06:53:46.425Z,2.80
2023-01-29T06:56:17.628Z,2.58
2023-01-29T06:58:44.720Z,2.69
2023-01-29T07:01:25.435Z,2.83
2023-01-29T07:04:00.338Z,2.88
2023-01-29T07:06:29.144Z,3.01
2023-01-29T07:08:56.211Z,2.78
2023-01-29T07:11:23.239Z,2.85
2023-01-29T07:13:50.373Z,2.97
2023-01-29T07:16:19.386Z,3.01
2023-01-29T07:18:47.801Z,2.84
2023-01-29T07:21:15.060Z,2.85
2023-01-29T07:23:42.131Z,3.13
2023-01-29T07:26:11.417Z,3.21
2023-01-29T07:28:39.459Z,3.23
2023-01-29T07:31:07.588Z,3.12
2023-01-29T07:33:35.028Z,2.98
2023-01-29T07:36:02.048Z,3.06
2023-01-29T07:38:29.259Z,3.27
2023-01-29T07:40:56.394Z,3.34
2023-01-29T07:43:25.151Z,3.43
2023-01-29T07:45:52.521Z,3.23
2023-01-29T07:48:20.541Z,3.24
2023-01-29T07:50:55.532Z,3.22
2023-01-29T07:53:22.778Z,3.43
2023-01-29T07:55:49.869Z,3.41
2023-01-29T07:58:17.210Z,3.33
2023-01-29T08:00:44.411Z,3.39
2023-01-29T08:03:18.173Z,3.41
2023-01-29T08:05:45.803Z,3.14
2023-01-29T08:08:13.471Z,3.24
2023-01-29T08:10:41.094Z,3.43
2023-01-29T08:13:08.408Z,3.47
2023-01-29T08:18:22.816Z,3.51
2023-01-29T08:20:52.758Z,3.34
2023-01-29T08:23:20.142Z,3.06
2023-01-29T08:25:47.436Z,3.26
2023-01-29T08:28:14.374Z,3.37
2023-01-29T08:30:41.875Z,3.56
2023-01-29T08:33:09.042Z,3.55
2023-01-29T08:35:36.798Z,3.62
2023-01-29T08:38:05.265Z,3.73
2023-01-29T08:40:35.146Z,3.65
2023-01-29T08:43:06.196Z,3.63
2023-01-29T08:45:37.791Z,3.79
2023-01-29T08:48:05.595Z,3.90
2023-01-29T08:50:35.074Z,4.03
2023-01-29T08:53:08.112Z,4.14
2023-01-29T08:55:40.281Z,4.21
2023-01-29T08:58:11.150Z,4.20
2023-01-29T09:00:38.719Z,4.13
2023-01-29T09:03:08.365Z,4.18
2023-01-29T09:05:36.781Z,4.12
2023-01-29T09:08:04.291Z,4.27
2023-01-29T09:10:31.239Z,4.36
2023-01-29T09:12:58.342Z,4.36
2023-01-29T09:15:25.757Z,4.40
2023-01-29T09:17:53.562Z,4.17
2023-01-29T09:20:21.034Z,4.50
2023-01-29T09:22:49.585Z,4.48
2023-01-29T09:25:16.954Z,4.52
2023-01-29T09:27:44.201Z,4.49
2023-01-29T09:30:12.055Z,4.44
2023-01-29T09:32:55.000Z,4.41
2023-01-29T09:35:24.254Z,4.61
2023-01-29T09:37:52.362Z,4.67
2023-01-29T09:40:38.671Z,4.68
2023-01-29T09:43:41.305Z,4.57
2023-01-29T09:46:23.748Z,4.79
2023-01-29T09:49:01.853Z,4.88
2023-01-29T09:51:34.903Z,4.74
2023-01-29T09:54:25.157Z,4.97
2023-01-29T09:56:57.108Z,4.74
2023-01-29T09:59:27.971Z,4.59
2023-01-29T10:02:11.741Z,4.55
2023-01-29T10:04:51.662Z,4.65
2023-01-29T10:07:50.211Z,4.44
2023-01-29T10:10:29.915Z,4.24
2023-01-29T10:13:19.401Z,3.92
2023-01-29T10:15:52.549Z,4.18
2023-01-29T10:18:43.791Z,4.19
2023-01-29T10:21:17.030Z,4.50
2023-01-29T10:23:50.330Z,4.66
2023-01-29T10:26:27.790Z,4.57
2023-01-29T10:28:58.612Z,4.68
2023-01-29T10:31:36.642Z,4.66
2023-01-29T10:34:19.509Z,4.59
2023-01-29T10:36:49.643Z,4.62
2023-01-29T10:39:24.602Z,4.57
2023-01-29T10:42:01.177Z,4.60
2023-01-29T10:44:56.376Z,4.58
2023-01-29T10:47:52.987Z,4.84
2023-01-29T10:50:26.545Z,4.66
2023-01-29T10:53:34.806Z,4.51
2023-01-29T10:56:14.168Z,4.52
2023-01-29T10:59:18.700Z,4.62
2023-01-29T11:01:46.203Z,4.73
2023-01-29T11:04:14.646Z,4.50
2023-01-29T11:06:42.168Z,4.32
2023-01-29T11:09:20.104Z,4.36
2023-01-29T11:12:22.617Z,4.51
2023-01-29T11:14:53.645Z,4.64
2023-01-29T11:17:23.541Z,4.67
2023-01-29T11:19:52.935Z,4.89
2023-01-29T11:22:28.150Z,4.87
2023-01-29T11:25:32.840Z,5.15
2023-01-29T11:28:02.224Z,5.11
2023-01-29T11:30:38.555Z,4.81
2023-01-29T11:33:05.927Z,4.82
2023-01-29T11:35:33.594Z,4.42
2023-01-29T11:38:27.839Z,4.57
2023-01-29T11:41:07.188Z,4.64
2023-01-29T11:43:34.294Z,4.16
2023-01-29T11:46:07.585Z,4.21
2023-01-29T11:48:45.846Z,3.95
2023-01-29T11:51:23.340Z,4.03
2023-01-29T11:53:55.399Z,4.14
2023-01-29T11:56:39.687Z,3.92
2023-01-29T11:59:13.991Z,3.99
2023-01-29T12:01:41.717Z,3.93
2023-01-29T12:04:20.595Z,4.10
2023-01-29T12:06:52.103Z,4.19
2023-01-29T12:09:27.741Z,4.22
2023-01-29T12:11:55.062Z,4.37
2023-01-29T12:14:36.250Z,4.07
2023-01-29T12:17:06.089Z,4.32
2023-01-29T12:19:45.343Z,4.37
2023-01-29T12:22:33.762Z,4.52
2023-01-29T12:25:23.476Z,4.69
2023-01-29T12:28:00.037Z,4.56
2023-01-29T12:30:45.028Z,4.67
2023-01-29T12:33:21.155Z,4.56
2023-01-29T12:35:54.696Z,4.46
2023-01-29T12:38:24.203Z,4.36
2023-01-29T12:41:06.205Z,4.33
2023-01-29T12:43:40.292Z,4.30
2023-01-29T12:46:13.495Z,4.13
2023-01-29T12:48:48.609Z,4.02
2023-01-29T12:51:23.462Z,3.96
2023-01-29T12:54:00.047Z,4.04
2023-01-29T12:56:37.371Z,4.18
2023-01-29T12:59:30.975Z,3.89
2023-01-29T13:02:11.550Z,3.86
2023-01-29T13:04:45.843Z,3.77
2023-01-29T13:07:24.665Z,3.77
2023-01-29T13:09:57.149Z,3.65
2023-01-29T13:12:24.793Z,3.67
2023-01-29T13:14:59.279Z,3.72
2023-01-29T13:17:42.957Z,3.64
2023-01-29T13:20:34.672Z,3.71
2023-01-29T13:23:25.656Z,3.73
2023-01-29T13:25:53.968Z,3.62
2023-01-29T13:28:24.641Z,3.73
2023-01-29T13:31:15.148Z,3.66
2023-01-29T13:33:51.934Z,3.69
2023-01-29T13:36:26.366Z,3.64
2023-01-29T13:39:05.642Z,3.75
2023-01-29T13:41:41.900Z,3.74
2023-01-29T13:44:23.676Z,3.79
2023-01-29T13:47:02.443Z,3.86
2023-01-29T13:49:35.564Z,3.86
2023-01-29T13:52:43.607Z,3.79
2023-01-29T13:55:13.807Z,3.94
2023-01-29T13:57:43.864Z,3.94
2023-01-29T14:00:22.703Z,4.00
2023-01-29T14:02:55.659Z,4.02
2023-01-29T14:11:19.444Z,3.87
2023-01-29T14:13:50.075Z,4.05
2023-01-29T14:16:17.100Z,4.16
2023-01-29T14:19:18.854Z,4.23
2023-01-29T14:21:51.283Z,4.10
2023-01-29T14:24:31.779Z,4.02
2023-01-29T14:27:02.124Z,3.96
2023-01-29T14:29:41.950Z,3.92
2023-01-29T14:32:19.834Z,3.85
2023-01-29T14:35:31.135Z,3.88
2023-01-29T14:38:10.043Z,3.79
2023-01-29T14:40:37.482Z,3.86
2023-01-29T14:43:20.246Z,3.79
2023-01-29T14:45:51.108Z,3.75
2023-01-29T14:48:46.765Z,3.73
2023-01-29T14:51:16.875Z,3.61
2023-01-29T14:53:57.174Z,3.71
2023-01-29T14:56:41.782Z,3.49
2023-01-29T14:59:20.873Z,3.53
2023-01-29T15:01:55.318Z,3.45
2023-01-29T15:04:55.376Z,3.45
2023-01-29T15:08:06.978Z,3.39
2023-01-29T15:10:43.388Z,3.43
2023-01-29T15:13:23.491Z,3.38
2023-01-29T15:15:56.675Z,3.40
2023-01-29T15:18:34.861Z,3.48
2023-01-29T15:21:05.820Z,3.47
2023-01-29T15:23:34.591Z,3.42
2023-01-29T15:26:04.514Z,3.43
2023-01-29T15:28:34.441Z,3.42
2023-01-29T15:31:05.955Z,3.42
2023-01-29T15:33:35.724Z,3.37
2023-01-29T15:36:08.737Z,3.47
2023-01-29T15:38:36.222Z,3.54
2023-01-29T15:41:16.647Z,3.51
2023-01-29T15:43:46.443Z,3.56
2023-01-29T15:46:28.660Z,3.53
2023-01-29T15:48:58.001Z,3.37
2023-01-29T15:51:27.867Z,3.45
2023-01-29T15:54:01.541Z,3.41
2023-01-29T15:56:31.435Z,3.43
2023-01-29T15:59:02.847Z,3.28
2023-01-29T16:01:32.219Z,3.41
2023-01-29T16:04:02.560Z,3.35
2023-01-29T16:06:39.986Z,3.30
2023-01-29T16:09:09.900Z,3.27
2023-01-29T16:11:38.090Z,3.25
2023-01-29T16:14:06.549Z,3.18
2023-01-29T16:16:33.730Z,3.12
2023-01-29T16:19:01.561Z,3.06
2023-01-29T16:21:40.301Z,3.06
2023-01-29T16:24:22.258Z,3.04
2023-01-29T16:26:51.478Z,3.03
2023-01-29T16:29:28.708Z,3.07
2023-01-29T16:32:02.012Z,3.00
2023-01-29T16:34:36.430Z,2.97
2023-01-29T16:37:19.404Z,2.93
2023-01-29T16:39:49.383Z,3.01
2023-01-29T16:42:25.343Z,3.05
2023-01-29T16:45:00.448Z,3.08
2023-01-29T16:47:36.922Z,3.02
2023-01-29T16:50:36.107Z,3.07
2023-01-29T16:53:25.015Z,3.03
2023-01-29T16:55:53.004Z,3.02
2023-01-29T16:58:24.681Z,3.16
2023-01-29T17:01:12.326Z,3.13
2023-01-29T17:03:40.790Z,3.19
2023-01-29T17:06:21.432Z,3.12
2023-01-29T17:08:48.942Z,3.12
2023-01-29T17:11:27.300Z,3.18
2023-01-29T17:13:57.399Z,3.22
2023-01-29T17:16:31.520Z,3.34
2023-01-29T17:18:59.688Z,3.33
2023-01-29T17:21:27.205Z,3.30
2023-01-29T17:23:54.425Z,3.42
2023-01-29T17:26:22.219Z,3.40
2023-01-29T17:28:51.622Z,3.48
2023-01-29T17:31:18.929Z,3.45
2023-01-29T17:33:45.964Z,3.50
2023-01-29T17:36:15.984Z,3.53
2023-01-29T17:38:43.498Z,3.52
2023-01-29T17:41:21.602Z,3.62
2023-01-29T17:43:48.775Z,3.60
2023-01-29T17:46:17.194Z,3.62
2023-01-29T17:48:45.066Z,3.71
2023-01-29T17:51:14.967Z,3.77
2023-01-29T17:53:45.993Z,3.80
2023-01-29T17:56:21.392Z,3.68
2023-01-29T17:58:48.632Z,3.93
2023-01-29T18:01:16.606Z,3.88
2023-01-29T18:03:43.803Z,3.87
2023-01-29T18:06:18.723Z,3.88
2023-01-29T18:08:45.988Z,3.99
2023-01-29T18:11:13.434Z,4.00
2023-01-29T18:13:42.424Z,4.06
2023-01-29T18:16:09.937Z,4.10
2023-01-29T18:18:37.097Z,3.98
2023-01-29T18:21:04.285Z,3.90
2023-01-29T18:23:32.090Z,3.96
2023-01-29T18:25:59.215Z,4.03
2023-01-29T18:28:26.288Z,3.99
2023-01-29T18:30:53.692Z,3.96
2023-01-29T18:33:20.907Z,4.04
2023-01-29T18:35:48.737Z,4.11
2023-01-29T18:38:17.241Z,4.15
2023-01-29T18:40:44.326Z,4.13
2023-01-29T18:43:11.323Z,4.13
2023-01-29T18:45:38.340Z,4.09
2023-01-29T18:48:05.858Z,4.09
2023-01-29T18:50:34.030Z,4.10
2023-01-29T18:53:01.511Z,3.90
2023-01-29T18:55:28.874Z,3.79
2023-01-29T18:58:27.447Z,3.61
2023-01-29T19:00:44.914Z,3.64
2023-01-29T19:03:12.296Z,3.60
2023-01-29T19:05:39.697Z,3.63
2023-01-29T19:08:06.776Z,3.58
2023-01-29T19:10:34.255Z,3.69
2023-01-29T19:13:01.849Z,3.73
2023-01-29T19:15:29.176Z,3.69
2023-01-29T19:17:56.878Z,3.72
2023-01-29T19:20:23.860Z,3.50
2023-01-29T19:22:51.458Z,3.51
2023-01-29T19:25:20.170Z,3.43
2023-01-29T19:27:48.007Z,3.45
2023-01-29T19:30:16.009Z,3.36
2023-01-29T19:32:45.623Z,3.18
2023-01-29T19:35:13.067Z,3.34
2023-01-29T19:37:40.141Z,3.35
2023-01-29T19:40:08.931Z,3.32
2023-01-29T19:42:37.605Z,3.32
2023-01-29T19:45:05.981Z,3.28
2023-01-29T19:47:38.079Z,3.28
2023-01-29T19:50:05.554Z,3.33
2023-01-29T19:52:50.374Z,3.59
2023-01-29T19:55:20.345Z,3.66
2023-01-29T19:57:47.654Z,3.77
2023-01-29T20:00:18.036Z,3.74
2023-01-29T20:02:47.082Z,3.78
2023-01-29T20:05:17.508Z,3.74
2023-01-29T20:07:45.098Z,3.72
2023-01-29T20:10:17.988Z,3.87
2023-01-29T20:12:46.603Z,3.91
2023-01-29T20:15:17.225Z,3.60
2023-01-29T20:17:45.777Z,3.55
2023-01-29T20:20:13.201Z,3.35
2023-01-29T20:22:40.383Z,3.33
2023-01-29T20:25:07.563Z,2.94
2023-01-29T20:27:34.664Z,3.50
2023-01-29T20:30:01.587Z,3.37
2023-01-29T20:32:32.955Z,3.44
2023-01-29T20:35:00.160Z,3.31
2023-01-29T20:37:27.459Z,3.29
2023-01-29T20:39:54.791Z,3.02
2023-01-29T20:42:21.764Z,2.77
2023-01-29T20:44:48.771Z,2.77
2023-01-29T20:47:15.759Z,2.75
2023-01-29T20:49:43.208Z,2.76
2023-01-29T20:52:11.307Z,2.65
2023-01-29T20:54:38.438Z,2.58
2023-01-29T20:57:05.396Z,2.50
2023-01-29T20:59:32.542Z,2.55
2023-01-29T21:01:59.509Z,2.33
2023-01-29T21:04:27.436Z,2.40
2023-01-29T21:06:54.438Z,2.54
2023-01-29T21:09:21.449Z,2.51
2023-01-29T21:11:48.628Z,2.64
2023-01-29T21:14:15.634Z,2.43
2023-01-29T21:16:42.775Z,2.28
2023-01-29T21:19:13.045Z,2.40
2023-01-29T21:21:40.264Z,2.20
2023-01-29T21:24:09.390Z,2.25
2023-01-29T21:26:38.636Z,2.35
2023-01-29T21:29:05.815Z,2.31
2023-01-29T21:31:33.776Z,2.46
2023-01-29T21:34:00.756Z,2.55
2023-01-29T21:36:30.855Z,2.45
2023-01-29T21:38:58.216Z,2.44
2023-01-29T21:41:44.621Z,2.20
2023-01-29T21:44:12.605Z,2.14
2023-01-29T21:46:39.602Z,2.21
2023-01-29T21:49:06.863Z,2.10
2023-01-29T21:51:33.763Z,2.07
2023-01-29T21:54:00.684Z,2.14
2023-01-29T21:56:27.760Z,2.04
2023-01-29T21:58:55.052Z,1.99
2023-01-29T22:01:36.451Z,1.99
2023-01-29T22:04:07.793Z,1.97
2023-01-29T22:06:35.109Z,1.89
2023-01-29T22:09:02.156Z,1.90
2023-01-29T22:11:29.143Z,1.86
2023-01-29T22:13:56.109Z,1.96
2023-01-29T22:16:23.064Z,2.12
2023-01-29T22:18:50.279Z,2.10
2023-01-29T22:21:17.209Z,1.90
2023-01-29T22:23:49.209Z,2.01
2023-01-29T22:26:16.684Z,2.02
2023-01-29T22:28:43.737Z,2.12
2023-01-29T22:31:13.523Z,2.08
2023-01-29T22:33:40.498Z,2.06
2023-01-29T22:36:08.064Z,2.12
2023-01-29T22:38:35.210Z,2.03
2023-01-29T22:41:02.602Z,2.08
2023-01-29T22:43:29.849Z,2.23
2023-01-29T22:45:57.114Z,2.36
2023-01-29T22:48:24.253Z,2.28
2023-01-29T22:51:10.981Z,2.36
2023-01-29T22:53:44.288Z,2.46
2023-01-29T22:56:12.091Z,2.52
2023-01-29T22:58:39.198Z,2.53
2023-01-29T23:01:06.204Z,2.59
2023-01-29T23:03:33.727Z,2.51
2023-01-29T23:06:01.455Z,2.66
2023-01-29T23:08:28.564Z,2.65
2023-01-29T23:10:55.553Z,2.73
2023-01-29T23:13:22.510Z,2.58
2023-01-29T23:15:59.192Z,2.60
2023-01-29T23:18:26.308Z,2.25
2023-01-29T23:20:57.670Z,2.57
2023-01-29T23:23:24.901Z,2.60
2023-01-29T23:26:16.895Z,2.61
2023-01-29T23:28:44.373Z,2.73
2023-01-29T23:31:12.303Z,2.65
2023-01-29T23:33:39.432Z,2.62
2023-01-29T23:36:07.900Z,2.68
2023-01-29T23:38:34.967Z,2.65
2023-01-29T23:41:02.023Z,2.66
2023-01-29T23:43:30.524Z,2.67
2023-01-29T23:45:57.823Z,2.70
2023-01-29T23:48:24.908Z,2.60
2023-01-29T23:50:52.052Z,2.55
2023-01-29T23:53:19.186Z,2.49
2023-01-29T23:55:59.719Z,2.55
2023-01-29T23:58:28.002Z,2.61
